KLSV

Nellis AFB Airport

Las Vegas, Nevada, USA
METAR KLSV 170658Z 00000KT 10SM BKN250 07/M05 A3016 RMK AO2A SLP210 ALSTG/SLP ESTMD $
Observed Flight Rules
Dec-17 @ 06:58 UTC (an hour ago) Visual Flight Rules
Visibility Clouds
10 miles
  • Broken at 25,000' AGL
Temperatures Readings
Current 7°C / 45°F
Dewpoint -5°C / 23°F
Humidity 42%
Altimeter 30.16" Hg
Pressure 1021 hPa
Elevation 570
METAR KLSV 170658Z 00000KT 10SM BKN250 07/M05 A3016 RMK AO2A SLP210 ALSTG/SLP ESTMD $
Observed Flight Rules
Dec-17 @ 06:58 UTC
(an hour ago)
VFR
Clouds
  • Broken at 25,000' AGL
Temperature Dewpoint
7°C / 45°F -5°C / 23°F
Humidity Altimeter Pressure
42% 30.16" Hg 1021 hPa